sensor_id;sensor_type;location;lat;lon;timestamp;P1;durP1;ratioP1;P2;durP2;ratioP2
26375;SDS011;30544;42.196;24.336;2022-07-22T00:01:31;12.52;;;8.48;;
26375;SDS011;30544;42.196;24.336;2022-07-22T00:03:58;18.58;;;8.90;;
26375;SDS011;30544;42.196;24.336;2022-07-22T00:06:28;16.17;;;9.10;;
26375;SDS011;30544;42.196;24.336;2022-07-22T00:08:55;17.80;;;9.25;;
26375;SDS011;30544;42.196;24.336;2022-07-22T00:11:23;12.43;;;8.65;;
26375;SDS011;30544;42.196;24.336;2022-07-22T00:13:49;19.45;;;9.35;;
26375;SDS011;30544;42.196;24.336;2022-07-22T00:16:16;19.52;;;9.43;;
26375;SDS011;30544;42.196;24.336;2022-07-22T00:18:43;16.63;;;9.02;;
26375;SDS011;30544;42.196;24.336;2022-07-22T00:21:10;18.75;;;8.82;;
26375;SDS011;30544;42.196;24.336;2022-07-22T00:23:38;21.88;;;9.75;;
26375;SDS011;30544;42.196;24.336;2022-07-22T00:26:05;24.30;;;10.40;;
26375;SDS011;30544;42.196;24.336;2022-07-22T00:28:32;19.67;;;10.73;;
26375;SDS011;30544;42.196;24.336;2022-07-22T00:30:59;21.40;;;11.85;;
26375;SDS011;30544;42.196;24.336;2022-07-22T00:33:25;23.73;;;11.65;;
26375;SDS011;30544;42.196;24.336;2022-07-22T00:35:52;23.20;;;11.50;;
26375;SDS011;30544;42.196;24.336;2022-07-22T00:38:19;22.73;;;10.88;;
26375;SDS011;30544;42.196;24.336;2022-07-22T00:40:47;16.48;;;10.13;;
26375;SDS011;30544;42.196;24.336;2022-07-22T00:43:14;18.48;;;10.63;;
26375;SDS011;30544;42.196;24.336;2022-07-22T00:45:41;16.08;;;9.82;;
26375;SDS011;30544;42.196;24.336;2022-07-22T00:48:08;14.00;;;9.88;;
26375;SDS011;30544;42.196;24.336;2022-07-22T00:50:35;22.20;;;9.57;;
26375;SDS011;30544;42.196;24.336;2022-07-22T00:53:02;15.57;;;9.32;;
26375;SDS011;30544;42.196;24.336;2022-07-22T00:55:29;17.13;;;9.55;;
26375;SDS011;30544;42.196;24.336;2022-07-22T00:58:00;18.33;;;8.98;;
26375;SDS011;30544;42.196;24.336;2022-07-22T01:00:27;17.85;;;9.35;;
26375;SDS011;30544;42.196;24.336;2022-07-22T01:02:54;15.38;;;9.15;;
26375;SDS011;30544;42.196;24.336;2022-07-22T01:05:21;16.40;;;9.10;;
26375;SDS011;30544;42.196;24.336;2022-07-22T01:07:48;12.20;;;8.82;;
26375;SDS011;30544;42.196;24.336;2022-07-22T01:10:14;16.33;;;9.25;;
26375;SDS011;30544;42.196;24.336;2022-07-22T01:12:41;20.15;;;9.27;;
26375;SDS011;30544;42.196;24.336;2022-07-22T01:15:10;16.75;;;9.48;;
26375;SDS011;30544;42.196;24.336;2022-07-22T01:17:37;17.55;;;9.13;;
26375;SDS011;30544;42.196;24.336;2022-07-22T01:20:05;18.13;;;9.23;;
26375;SDS011;30544;42.196;24.336;2022-07-22T01:22:33;17.20;;;9.48;;
26375;SDS011;30544;42.196;24.336;2022-07-22T01:25:00;16.98;;;9.68;;
26375;SDS011;30544;42.196;24.336;2022-07-22T01:27:27;16.92;;;8.88;;
26375;SDS011;30544;42.196;24.336;2022-07-22T01:29:55;18.10;;;8.93;;
26375;SDS011;30544;42.196;24.336;2022-07-22T01:32:22;14.88;;;9.20;;
26375;SDS011;30544;42.196;24.336;2022-07-22T01:34:48;14.55;;;8.43;;
26375;SDS011;30544;42.196;24.336;2022-07-22T01:37:17;15.07;;;9.38;;
26375;SDS011;30544;42.196;24.336;2022-07-22T01:39:43;16.15;;;8.85;;
26375;SDS011;30544;42.196;24.336;2022-07-22T01:42:10;17.13;;;8.80;;
26375;SDS011;30544;42.196;24.336;2022-07-22T01:44:37;17.98;;;9.35;;
26375;SDS011;30544;42.196;24.336;2022-07-22T01:47:04;13.93;;;8.95;;
26375;SDS011;30544;42.196;24.336;2022-07-22T01:49:31;18.77;;;8.90;;
26375;SDS011;30544;42.196;24.336;2022-07-22T01:51:58;14.40;;;9.30;;
26375;SDS011;30544;42.196;24.336;2022-07-22T01:54:26;21.73;;;9.40;;
26375;SDS011;30544;42.196;24.336;2022-07-22T01:56:53;14.40;;;8.73;;
26375;SDS011;30544;42.196;24.336;2022-07-22T01:59:20;14.00;;;9.45;;
26375;SDS011;30544;42.196;24.336;2022-07-22T02:01:47;16.30;;;9.18;;
26375;SDS011;30544;42.196;24.336;2022-07-22T02:04:14;15.80;;;9.20;;
26375;SDS011;30544;42.196;24.336;2022-07-22T02:06:40;17.38;;;9.63;;
26375;SDS011;30544;42.196;24.336;2022-07-22T02:09:07;17.50;;;9.68;;
26375;SDS011;30544;42.196;24.336;2022-07-22T02:11:35;14.90;;;9.52;;
26375;SDS011;30544;42.196;24.336;2022-07-22T02:14:02;17.30;;;9.32;;
26375;SDS011;30544;42.196;24.336;2022-07-22T02:16:29;17.77;;;9.90;;
26375;SDS011;30544;42.196;24.336;2022-07-22T02:18:56;16.60;;;9.15;;
26375;SDS011;30544;42.196;24.336;2022-07-22T02:21:22;15.80;;;9.48;;
26375;SDS011;30544;42.196;24.336;2022-07-22T02:23:49;14.43;;;10.02;;
26375;SDS011;30544;42.196;24.336;2022-07-22T02:26:16;22.73;;;9.88;;
26375;SDS011;30544;42.196;24.336;2022-07-22T02:28:44;17.05;;;9.77;;
26375;SDS011;30544;42.196;24.336;2022-07-22T02:31:11;19.25;;;9.98;;
26375;SDS011;30544;42.196;24.336;2022-07-22T02:33:38;14.75;;;9.75;;
26375;SDS011;30544;42.196;24.336;2022-07-22T02:36:05;17.75;;;10.30;;
26375;SDS011;30544;42.196;24.336;2022-07-22T02:38:32;16.92;;;10.30;;
26375;SDS011;30544;42.196;24.336;2022-07-22T02:40:59;15.90;;;10.68;;
26375;SDS011;30544;42.196;24.336;2022-07-22T02:43:26;18.58;;;10.90;;
26375;SDS011;30544;42.196;24.336;2022-07-22T02:45:54;21.25;;;11.38;;
26375;SDS011;30544;42.196;24.336;2022-07-22T02:48:21;21.02;;;11.10;;
26375;SDS011;30544;42.196;24.336;2022-07-22T02:50:48;19.65;;;11.73;;
26375;SDS011;30544;42.196;24.336;2022-07-22T02:53:15;23.45;;;12.50;;
26375;SDS011;30544;42.196;24.336;2022-07-22T02:55:42;18.40;;;12.50;;
26375;SDS011;30544;42.196;24.336;2022-07-22T02:58:09;25.42;;;15.18;;
26375;SDS011;30544;42.196;24.336;2022-07-22T03:00:36;33.13;;;20.75;;
26375;SDS011;30544;42.196;24.336;2022-07-22T03:03:05;35.63;;;21.98;;
26375;SDS011;30544;42.196;24.336;2022-07-22T03:05:32;38.13;;;23.20;;
26375;SDS011;30544;42.196;24.336;2022-07-22T03:07:59;42.63;;;25.17;;
26375;SDS011;30544;42.196;24.336;2022-07-22T03:10:25;46.15;;;26.52;;
26375;SDS011;30544;42.196;24.336;2022-07-22T03:12:52;48.65;;;28.88;;
26375;SDS011;30544;42.196;24.336;2022-07-22T03:15:19;51.75;;;30.42;;
26375;SDS011;30544;42.196;24.336;2022-07-22T03:17:46;62.63;;;31.45;;
26375;SDS011;30544;42.196;24.336;2022-07-22T03:20:14;56.33;;;29.45;;
26375;SDS011;30544;42.196;24.336;2022-07-22T03:22:41;46.63;;;30.00;;
26375;SDS011;30544;42.196;24.336;2022-07-22T03:25:08;51.42;;;29.60;;
26375;SDS011;30544;42.196;24.336;2022-07-22T03:27:35;52.42;;;28.88;;
26375;SDS011;30544;42.196;24.336;2022-07-22T03:30:02;52.25;;;29.58;;
26375;SDS011;30544;42.196;24.336;2022-07-22T03:32:29;54.38;;;28.85;;
26375;SDS011;30544;42.196;24.336;2022-07-22T03:34:56;47.20;;;29.10;;
26375;SDS011;30544;42.196;24.336;2022-07-22T03:37:25;51.25;;;28.85;;
26375;SDS011;30544;42.196;24.336;2022-07-22T03:39:51;59.65;;;28.05;;
26375;SDS011;30544;42.196;24.336;2022-07-22T03:42:18;45.72;;;25.05;;
26375;SDS011;30544;42.196;24.336;2022-07-22T03:44:45;41.78;;;24.85;;
26375;SDS011;30544;42.196;24.336;2022-07-22T03:47:12;42.20;;;23.83;;
26375;SDS011;30544;42.196;24.336;2022-07-22T03:49:43;36.17;;;19.98;;
26375;SDS011;30544;42.196;24.336;2022-07-22T03:52:09;43.15;;;21.45;;
26375;SDS011;30544;42.196;24.336;2022-07-22T03:54:39;32.63;;;18.88;;
26375;SDS011;30544;42.196;24.336;2022-07-22T03:57:06;35.67;;;18.45;;
26375;SDS011;30544;42.196;24.336;2022-07-22T03:59:33;33.75;;;18.52;;
26375;SDS011;30544;42.196;24.336;2022-07-22T04:01:59;33.50;;;17.45;;
26375;SDS011;30544;42.196;24.336;2022-07-22T04:04:26;35.42;;;16.77;;
26375;SDS011;30544;42.196;24.336;2022-07-22T04:06:53;50.53;;;26.60;;
26375;SDS011;30544;42.196;24.336;2022-07-22T04:09:20;176.27;;;72.82;;
26375;SDS011;30544;42.196;24.336;2022-07-22T04:11:49;551.15;;;235.65;;
26375;SDS011;30544;42.196;24.336;2022-07-22T04:14:17;124.55;;;53.00;;
26375;SDS011;30544;42.196;24.336;2022-07-22T04:16:43;193.70;;;77.47;;
26375;SDS011;30544;42.196;24.336;2022-07-22T04:19:10;515.35;;;216.38;;
26375;SDS011;30544;42.196;24.336;2022-07-22T04:21:37;372.27;;;152.02;;
26375;SDS011;30544;42.196;24.336;2022-07-22T04:24:04;87.05;;;38.70;;
26375;SDS011;30544;42.196;24.336;2022-07-22T04:26:32;236.50;;;106.38;;
26375;SDS011;30544;42.196;24.336;2022-07-22T04:29:00;84.93;;;40.55;;
26375;SDS011;30544;42.196;24.336;2022-07-22T04:31:27;184.00;;;72.97;;
26375;SDS011;30544;42.196;24.336;2022-07-22T04:33:54;331.50;;;143.20;;
26375;SDS011;30544;42.196;24.336;2022-07-22T04:36:21;148.57;;;74.35;;
26375;SDS011;30544;42.196;24.336;2022-07-22T04:38:48;59.58;;;31.98;;
26375;SDS011;30544;42.196;24.336;2022-07-22T04:41:15;39.50;;;20.77;;
26375;SDS011;30544;42.196;24.336;2022-07-22T04:43:42;31.77;;;15.85;;
26375;SDS011;30544;42.196;24.336;2022-07-22T04:46:10;28.45;;;15.40;;
26375;SDS011;30544;42.196;24.336;2022-07-22T04:48:37;27.70;;;12.98;;
26375;SDS011;30544;42.196;24.336;2022-07-22T04:51:03;27.10;;;13.60;;
26375;SDS011;30544;42.196;24.336;2022-07-22T04:53:30;22.80;;;12.68;;
26375;SDS011;30544;42.196;24.336;2022-07-22T04:55:57;25.02;;;13.07;;
26375;SDS011;30544;42.196;24.336;2022-07-22T04:58:25;18.80;;;12.38;;
26375;SDS011;30544;42.196;24.336;2022-07-22T05:00:52;21.80;;;11.90;;
26375;SDS011;30544;42.196;24.336;2022-07-22T05:03:20;27.05;;;12.45;;
26375;SDS011;30544;42.196;24.336;2022-07-22T05:05:49;23.02;;;12.50;;
26375;SDS011;30544;42.196;24.336;2022-07-22T05:08:16;22.23;;;12.65;;
26375;SDS011;30544;42.196;24.336;2022-07-22T05:10:43;22.52;;;10.93;;
26375;SDS011;30544;42.196;24.336;2022-07-22T05:13:12;22.52;;;12.13;;
26375;SDS011;30544;42.196;24.336;2022-07-22T05:15:39;20.70;;;11.38;;
26375;SDS011;30544;42.196;24.336;2022-07-22T05:18:06;24.73;;;11.80;;
26375;SDS011;30544;42.196;24.336;2022-07-22T05:20:35;16.13;;;10.88;;
26375;SDS011;30544;42.196;24.336;2022-07-22T05:23:01;19.40;;;11.43;;
26375;SDS011;30544;42.196;24.336;2022-07-22T05:25:28;21.73;;;11.55;;
26375;SDS011;30544;42.196;24.336;2022-07-22T05:27:55;17.02;;;10.55;;
26375;SDS011;30544;42.196;24.336;2022-07-22T05:30:22;25.25;;;11.23;;
26375;SDS011;30544;42.196;24.336;2022-07-22T05:32:49;17.33;;;9.88;;
26375;SDS011;30544;42.196;24.336;2022-07-22T05:35:16;13.38;;;8.82;;
26375;SDS011;30544;42.196;24.336;2022-07-22T05:37:44;18.50;;;8.88;;
26375;SDS011;30544;42.196;24.336;2022-07-22T05:40:11;22.17;;;9.43;;
26375;SDS011;30544;42.196;24.336;2022-07-22T05:42:39;15.65;;;9.00;;
26375;SDS011;30544;42.196;24.336;2022-07-22T05:45:06;15.88;;;9.02;;
26375;SDS011;30544;42.196;24.336;2022-07-22T05:47:33;15.77;;;8.65;;
26375;SDS011;30544;42.196;24.336;2022-07-22T05:50:00;14.52;;;8.57;;
26375;SDS011;30544;42.196;24.336;2022-07-22T05:52:27;14.68;;;8.55;;
26375;SDS011;30544;42.196;24.336;2022-07-22T05:54:58;18.75;;;8.50;;
26375;SDS011;30544;42.196;24.336;2022-07-22T05:57:25;15.40;;;7.38;;
26375;SDS011;30544;42.196;24.336;2022-07-22T05:59:52;12.18;;;7.40;;
26375;SDS011;30544;42.196;24.336;2022-07-22T06:02:19;11.27;;;6.95;;
26375;SDS011;30544;42.196;24.336;2022-07-22T06:04:46;12.65;;;7.30;;
26375;SDS011;30544;42.196;24.336;2022-07-22T06:07:13;14.23;;;6.55;;
26375;SDS011;30544;42.196;24.336;2022-07-22T06:09:40;11.85;;;6.53;;
26375;SDS011;30544;42.196;24.336;2022-07-22T06:12:08;44.85;;;21.45;;
26375;SDS011;30544;42.196;24.336;2022-07-22T06:14:35;164.82;;;62.97;;
26375;SDS011;30544;42.196;24.336;2022-07-22T06:17:02;37.72;;;17.65;;
26375;SDS011;30544;42.196;24.336;2022-07-22T06:19:29;22.15;;;9.85;;
26375;SDS011;30544;42.196;24.336;2022-07-22T06:21:57;19.00;;;6.93;;
26375;SDS011;30544;42.196;24.336;2022-07-22T06:24:24;13.70;;;6.45;;
26375;SDS011;30544;42.196;24.336;2022-07-22T06:26:50;16.92;;;6.40;;
26375;SDS011;30544;42.196;24.336;2022-07-22T06:29:19;15.40;;;6.95;;
26375;SDS011;30544;42.196;24.336;2022-07-22T06:31:45;23.13;;;6.38;;
26375;SDS011;30544;42.196;24.336;2022-07-22T06:34:12;12.05;;;6.22;;
26375;SDS011;30544;42.196;24.336;2022-07-22T06:36:39;15.27;;;6.55;;
26375;SDS011;30544;42.196;24.336;2022-07-22T06:39:06;14.85;;;5.95;;
26375;SDS011;30544;42.196;24.336;2022-07-22T06:41:33;9.63;;;5.85;;
26375;SDS011;30544;42.196;24.336;2022-07-22T06:44:00;13.70;;;5.40;;
26375;SDS011;30544;42.196;24.336;2022-07-22T06:46:28;10.05;;;5.18;;
26375;SDS011;30544;42.196;24.336;2022-07-22T06:48:55;13.43;;;5.70;;
26375;SDS011;30544;42.196;24.336;2022-07-22T06:51:21;11.77;;;6.15;;
26375;SDS011;30544;42.196;24.336;2022-07-22T06:53:48;20.50;;;6.00;;
26375;SDS011;30544;42.196;24.336;2022-07-22T06:56:15;13.77;;;6.30;;
26375;SDS011;30544;42.196;24.336;2022-07-22T06:58:42;13.07;;;6.78;;
26375;SDS011;30544;42.196;24.336;2022-07-22T07:01:09;12.40;;;5.72;;
26375;SDS011;30544;42.196;24.336;2022-07-22T07:03:37;15.65;;;6.55;;
26375;SDS011;30544;42.196;24.336;2022-07-22T07:06:06;16.27;;;7.97;;
26375;SDS011;30544;42.196;24.336;2022-07-22T07:08:34;25.52;;;11.63;;
26375;SDS011;30544;42.196;24.336;2022-07-22T07:11:00;22.75;;;8.55;;
26375;SDS011;30544;42.196;24.336;2022-07-22T07:13:27;12.70;;;7.60;;
26375;SDS011;30544;42.196;24.336;2022-07-22T07:15:54;17.00;;;6.75;;
26375;SDS011;30544;42.196;24.336;2022-07-22T07:18:21;37.58;;;17.92;;
26375;SDS011;30544;42.196;24.336;2022-07-22T07:20:49;15.18;;;6.38;;
26375;SDS011;30544;42.196;24.336;2022-07-22T07:23:16;13.52;;;5.97;;
26375;SDS011;30544;42.196;24.336;2022-07-22T07:25:43;10.45;;;6.88;;
26375;SDS011;30544;42.196;24.336;2022-07-22T07:28:10;91.97;;;35.63;;
26375;SDS011;30544;42.196;24.336;2022-07-22T07:30:36;59.85;;;26.42;;
26375;SDS011;30544;42.196;24.336;2022-07-22T07:33:03;29.38;;;14.18;;
26375;SDS011;30544;42.196;24.336;2022-07-22T07:35:30;13.25;;;7.20;;
26375;SDS011;30544;42.196;24.336;2022-07-22T07:37:58;10.02;;;5.45;;
26375;SDS011;30544;42.196;24.336;2022-07-22T07:40:25;18.23;;;5.78;;
26375;SDS011;30544;42.196;24.336;2022-07-22T07:42:52;13.88;;;5.47;;
26375;SDS011;30544;42.196;24.336;2022-07-22T07:45:19;10.07;;;5.35;;
26375;SDS011;30544;42.196;24.336;2022-07-22T07:47:46;11.60;;;5.57;;
26375;SDS011;30544;42.196;24.336;2022-07-22T07:50:13;17.65;;;9.07;;
26375;SDS011;30544;42.196;24.336;2022-07-22T07:52:40;20.02;;;10.38;;
26375;SDS011;30544;42.196;24.336;2022-07-22T07:55:10;15.98;;;5.80;;
26375;SDS011;30544;42.196;24.336;2022-07-22T07:57:38;14.10;;;6.60;;
26375;SDS011;30544;42.196;24.336;2022-07-22T08:00:07;12.45;;;5.50;;
26375;SDS011;30544;42.196;24.336;2022-07-22T08:02:35;12.90;;;5.03;;
26375;SDS011;30544;42.196;24.336;2022-07-22T08:05:03;18.27;;;4.93;;
26375;SDS011;30544;42.196;24.336;2022-07-22T08:07:30;40.00;;;19.17;;
26375;SDS011;30544;42.196;24.336;2022-07-22T08:09:57;14.00;;;6.10;;
26375;SDS011;30544;42.196;24.336;2022-07-22T08:12:25;85.38;;;38.33;;
26375;SDS011;30544;42.196;24.336;2022-07-22T08:14:52;37.08;;;16.52;;
26375;SDS011;30544;42.196;24.336;2022-07-22T08:17:19;22.85;;;10.20;;
26375;SDS011;30544;42.196;24.336;2022-07-22T08:19:46;14.35;;;5.53;;
26375;SDS011;30544;42.196;24.336;2022-07-22T08:22:13;10.05;;;5.53;;
26375;SDS011;30544;42.196;24.336;2022-07-22T08:24:40;16.58;;;5.30;;
26375;SDS011;30544;42.196;24.336;2022-07-22T08:27:07;12.07;;;5.32;;
26375;SDS011;30544;42.196;24.336;2022-07-22T08:29:35;10.98;;;5.43;;
26375;SDS011;30544;42.196;24.336;2022-07-22T08:32:02;14.63;;;5.72;;
26375;SDS011;30544;42.196;24.336;2022-07-22T08:34:29;11.43;;;5.25;;
26375;SDS011;30544;42.196;24.336;2022-07-22T08:36:57;9.27;;;4.65;;
26375;SDS011;30544;42.196;24.336;2022-07-22T08:39:24;12.93;;;5.93;;
26375;SDS011;30544;42.196;24.336;2022-07-22T08:41:50;16.13;;;5.05;;
26375;SDS011;30544;42.196;24.336;2022-07-22T08:44:17;51.53;;;23.08;;
26375;SDS011;30544;42.196;24.336;2022-07-22T08:46:45;15.05;;;6.68;;
26375;SDS011;30544;42.196;24.336;2022-07-22T08:49:13;12.00;;;5.13;;
26375;SDS011;30544;42.196;24.336;2022-07-22T08:51:40;11.93;;;5.70;;
26375;SDS011;30544;42.196;24.336;2022-07-22T08:54:07;16.60;;;6.15;;
26375;SDS011;30544;42.196;24.336;2022-07-22T08:56:34;13.27;;;5.43;;
26375;SDS011;30544;42.196;24.336;2022-07-22T08:59:03;29.52;;;14.68;;
26375;SDS011;30544;42.196;24.336;2022-07-22T09:01:30;16.48;;;6.93;;
26375;SDS011;30544;42.196;24.336;2022-07-22T09:03:58;15.30;;;5.10;;
26375;SDS011;30544;42.196;24.336;2022-07-22T09:06:26;10.70;;;4.60;;
26375;SDS011;30544;42.196;24.336;2022-07-22T09:08:58;13.27;;;4.95;;
26375;SDS011;30544;42.196;24.336;2022-07-22T09:11:27;10.20;;;4.70;;
26375;SDS011;30544;42.196;24.336;2022-07-22T09:13:55;10.02;;;4.90;;
26375;SDS011;30544;42.196;24.336;2022-07-22T09:16:37;14.75;;;5.13;;
26375;SDS011;30544;42.196;24.336;2022-07-22T09:19:06;8.82;;;4.50;;
26375;SDS011;30544;42.196;24.336;2022-07-22T09:21:34;14.13;;;5.15;;
26375;SDS011;30544;42.196;24.336;2022-07-22T09:24:02;11.60;;;4.85;;
26375;SDS011;30544;42.196;24.336;2022-07-22T09:26:30;10.88;;;5.13;;
26375;SDS011;30544;42.196;24.336;2022-07-22T09:28:59;12.80;;;4.75;;
26375;SDS011;30544;42.196;24.336;2022-07-22T09:31:27;10.70;;;5.15;;
26375;SDS011;30544;42.196;24.336;2022-07-22T09:33:56;13.43;;;4.97;;
26375;SDS011;30544;42.196;24.336;2022-07-22T09:36:24;12.32;;;4.32;;
26375;SDS011;30544;42.196;24.336;2022-07-22T09:38:51;13.25;;;4.68;;
26375;SDS011;30544;42.196;24.336;2022-07-22T09:41:19;8.40;;;4.38;;
26375;SDS011;30544;42.196;24.336;2022-07-22T09:43:46;11.27;;;4.60;;
26375;SDS011;30544;42.196;24.336;2022-07-22T09:46:15;8.93;;;4.97;;
26375;SDS011;30544;42.196;24.336;2022-07-22T09:48:42;13.57;;;4.75;;
26375;SDS011;30544;42.196;24.336;2022-07-22T09:51:08;8.00;;;5.20;;
26375;SDS011;30544;42.196;24.336;2022-07-22T09:53:37;19.75;;;5.65;;
26375;SDS011;30544;42.196;24.336;2022-07-22T09:56:04;9.18;;;5.65;;
26375;SDS011;30544;42.196;24.336;2022-07-22T09:58:32;10.82;;;5.32;;
26375;SDS011;30544;42.196;24.336;2022-07-22T10:01:02;16.83;;;5.72;;
26375;SDS011;30544;42.196;24.336;2022-07-22T10:03:32;16.88;;;5.75;;
26375;SDS011;30544;42.196;24.336;2022-07-22T10:06:02;13.93;;;5.78;;
26375;SDS011;30544;42.196;24.336;2022-07-22T10:08:30;13.75;;;5.45;;
26375;SDS011;30544;42.196;24.336;2022-07-22T10:11:00;9.02;;;4.80;;
26375;SDS011;30544;42.196;24.336;2022-07-22T10:13:29;8.07;;;4.50;;
26375;SDS011;30544;42.196;24.336;2022-07-22T10:15:57;12.38;;;4.75;;
26375;SDS011;30544;42.196;24.336;2022-07-22T10:18:25;14.77;;;4.88;;
26375;SDS011;30544;42.196;24.336;2022-07-22T10:21:01;14.23;;;5.35;;
26375;SDS011;30544;42.196;24.336;2022-07-22T10:23:29;16.60;;;5.93;;
26375;SDS011;30544;42.196;24.336;2022-07-22T10:25:56;13.27;;;5.30;;
26375;SDS011;30544;42.196;24.336;2022-07-22T10:28:26;14.05;;;4.90;;
26375;SDS011;30544;42.196;24.336;2022-07-22T10:31:08;13.52;;;4.97;;
26375;SDS011;30544;42.196;24.336;2022-07-22T10:33:44;9.75;;;5.07;;
26375;SDS011;30544;42.196;24.336;2022-07-22T10:36:13;17.05;;;4.97;;
26375;SDS011;30544;42.196;24.336;2022-07-22T10:38:44;12.68;;;4.68;;
26375;SDS011;30544;42.196;24.336;2022-07-22T10:41:30;11.52;;;4.30;;
26375;SDS011;30544;42.196;24.336;2022-07-22T10:44:01;14.23;;;5.32;;
26375;SDS011;30544;42.196;24.336;2022-07-22T10:49:17;11.93;;;4.70;;
26375;SDS011;30544;42.196;24.336;2022-07-22T10:57:41;13.35;;;4.75;;
26375;SDS011;30544;42.196;24.336;2022-07-22T11:00:10;13.88;;;5.43;;
26375;SDS011;30544;42.196;24.336;2022-07-22T11:02:37;14.32;;;5.32;;
26375;SDS011;30544;42.196;24.336;2022-07-22T11:05:05;10.10;;;4.32;;
26375;SDS011;30544;42.196;24.336;2022-07-22T11:07:33;10.27;;;4.03;;
26375;SDS011;30544;42.196;24.336;2022-07-22T11:10:10;8.70;;;4.45;;
26375;SDS011;30544;42.196;24.336;2022-07-22T11:12:38;10.38;;;5.03;;
26375;SDS011;30544;42.196;24.336;2022-07-22T11:15:05;8.35;;;4.43;;
26375;SDS011;30544;42.196;24.336;2022-07-22T11:17:34;12.85;;;5.40;;
26375;SDS011;30544;42.196;24.336;2022-07-22T11:20:02;9.68;;;5.10;;
26375;SDS011;30544;42.196;24.336;2022-07-22T11:22:31;21.95;;;5.60;;
26375;SDS011;30544;42.196;24.336;2022-07-22T11:24:58;16.50;;;5.25;;
26375;SDS011;30544;42.196;24.336;2022-07-22T11:27:26;12.93;;;5.50;;
26375;SDS011;30544;42.196;24.336;2022-07-22T11:29:54;9.75;;;4.28;;
26375;SDS011;30544;42.196;24.336;2022-07-22T11:32:21;8.82;;;4.68;;
26375;SDS011;30544;42.196;24.336;2022-07-22T11:34:51;13.32;;;4.70;;
26375;SDS011;30544;42.196;24.336;2022-07-22T11:37:18;15.25;;;4.45;;
26375;SDS011;30544;42.196;24.336;2022-07-22T11:39:48;9.38;;;4.68;;
26375;SDS011;30544;42.196;24.336;2022-07-22T11:42:16;15.65;;;4.63;;
26375;SDS011;30544;42.196;24.336;2022-07-22T11:44:43;11.25;;;4.30;;
26375;SDS011;30544;42.196;24.336;2022-07-22T11:47:10;10.10;;;4.95;;
26375;SDS011;30544;42.196;24.336;2022-07-22T11:49:37;9.23;;;4.90;;
26375;SDS011;30544;42.196;24.336;2022-07-22T11:52:06;14.73;;;5.03;;
26375;SDS011;30544;42.196;24.336;2022-07-22T11:54:37;40.05;;;5.80;;
26375;SDS011;30544;42.196;24.336;2022-07-22T11:57:04;8.82;;;4.82;;
26375;SDS011;30544;42.196;24.336;2022-07-22T11:59:32;12.73;;;4.93;;
26375;SDS011;30544;42.196;24.336;2022-07-22T12:01:59;14.05;;;4.82;;
26375;SDS011;30544;42.196;24.336;2022-07-22T12:04:27;14.18;;;6.07;;
26375;SDS011;30544;42.196;24.336;2022-07-22T12:06:57;12.27;;;5.40;;
26375;SDS011;30544;42.196;24.336;2022-07-22T12:09:28;16.63;;;6.18;;
26375;SDS011;30544;42.196;24.336;2022-07-22T12:11:57;11.35;;;5.38;;
26375;SDS011;30544;42.196;24.336;2022-07-22T12:14:25;13.48;;;5.43;;
26375;SDS011;30544;42.196;24.336;2022-07-22T12:16:53;10.82;;;5.53;;
26375;SDS011;30544;42.196;24.336;2022-07-22T12:19:21;12.95;;;5.70;;
26375;SDS011;30544;42.196;24.336;2022-07-22T12:21:52;12.55;;;4.85;;
26375;SDS011;30544;42.196;24.336;2022-07-22T12:24:28;13.20;;;4.40;;
26375;SDS011;30544;42.196;24.336;2022-07-22T12:26:57;7.90;;;4.85;;
26375;SDS011;30544;42.196;24.336;2022-07-22T12:29:25;10.18;;;4.85;;
26375;SDS011;30544;42.196;24.336;2022-07-22T12:31:55;10.65;;;5.10;;
26375;SDS011;30544;42.196;24.336;2022-07-22T12:34:31;9.73;;;4.40;;
26375;SDS011;30544;42.196;24.336;2022-07-22T12:37:01;6.57;;;4.03;;
26375;SDS011;30544;42.196;24.336;2022-07-22T12:39:40;8.80;;;4.93;;
26375;SDS011;30544;42.196;24.336;2022-07-22T12:42:18;16.15;;;5.18;;
26375;SDS011;30544;42.196;24.336;2022-07-22T12:44:53;15.80;;;5.32;;
26375;SDS011;30544;42.196;24.336;2022-07-22T12:47:41;10.32;;;5.68;;
26375;SDS011;30544;42.196;24.336;2022-07-22T12:50:17;11.90;;;5.40;;
26375;SDS011;30544;42.196;24.336;2022-07-22T12:52:49;12.55;;;5.80;;
26375;SDS011;30544;42.196;24.336;2022-07-22T12:55:18;11.77;;;5.13;;
26375;SDS011;30544;42.196;24.336;2022-07-22T12:57:45;9.52;;;5.18;;
26375;SDS011;30544;42.196;24.336;2022-07-22T13:00:15;14.38;;;5.45;;
26375;SDS011;30544;42.196;24.336;2022-07-22T13:02:43;12.25;;;6.85;;
26375;SDS011;30544;42.196;24.336;2022-07-22T13:05:10;14.38;;;6.95;;
26375;SDS011;30544;42.196;24.336;2022-07-22T13:07:37;22.23;;;5.80;;
26375;SDS011;30544;42.196;24.336;2022-07-22T13:10:05;12.63;;;5.07;;
26375;SDS011;30544;42.196;24.336;2022-07-22T13:12:34;12.55;;;5.95;;
26375;SDS011;30544;42.196;24.336;2022-07-22T13:15:01;16.65;;;7.90;;
26375;SDS011;30544;42.196;24.336;2022-07-22T13:17:28;16.13;;;8.05;;
26375;SDS011;30544;42.196;24.336;2022-07-22T13:19:54;13.77;;;6.25;;
26375;SDS011;30544;42.196;24.336;2022-07-22T13:22:21;6.57;;;5.28;;
26375;SDS011;30544;42.196;24.336;2022-07-22T13:24:48;12.18;;;5.40;;
26375;SDS011;30544;42.196;24.336;2022-07-22T13:27:15;8.88;;;5.07;;
26375;SDS011;30544;42.196;24.336;2022-07-22T13:29:44;9.80;;;5.20;;
26375;SDS011;30544;42.196;24.336;2022-07-22T13:32:11;9.45;;;5.55;;
26375;SDS011;30544;42.196;24.336;2022-07-22T13:34:38;13.30;;;5.13;;
26375;SDS011;30544;42.196;24.336;2022-07-22T13:37:04;10.82;;;4.80;;
26375;SDS011;30544;42.196;24.336;2022-07-22T13:39:31;9.45;;;4.88;;
26375;SDS011;30544;42.196;24.336;2022-07-22T13:41:58;9.60;;;4.80;;
26375;SDS011;30544;42.196;24.336;2022-07-22T13:44:25;10.80;;;4.70;;
26375;SDS011;30544;42.196;24.336;2022-07-22T13:46:53;9.23;;;4.88;;
26375;SDS011;30544;42.196;24.336;2022-07-22T13:49:22;15.57;;;5.47;;
26375;SDS011;30544;42.196;24.336;2022-07-22T13:51:49;16.17;;;9.23;;
26375;SDS011;30544;42.196;24.336;2022-07-22T13:54:16;14.82;;;6.22;;
26375;SDS011;30544;42.196;24.336;2022-07-22T13:56:43;17.67;;;7.88;;
26375;SDS011;30544;42.196;24.336;2022-07-22T13:59:12;14.20;;;5.72;;
26375;SDS011;30544;42.196;24.336;2022-07-22T14:01:39;11.10;;;5.38;;
26375;SDS011;30544;42.196;24.336;2022-07-22T14:04:08;11.00;;;5.00;;
26375;SDS011;30544;42.196;24.336;2022-07-22T14:06:34;17.17;;;5.68;;
26375;SDS011;30544;42.196;24.336;2022-07-22T14:09:02;11.05;;;5.15;;
26375;SDS011;30544;42.196;24.336;2022-07-22T14:11:29;8.60;;;5.05;;
26375;SDS011;30544;42.196;24.336;2022-07-22T14:13:56;12.65;;;7.00;;
26375;SDS011;30544;42.196;24.336;2022-07-22T14:16:23;13.13;;;6.32;;
26375;SDS011;30544;42.196;24.336;2022-07-22T14:18:59;14.85;;;7.22;;
26375;SDS011;30544;42.196;24.336;2022-07-22T14:21:28;10.80;;;5.03;;
26375;SDS011;30544;42.196;24.336;2022-07-22T14:23:55;11.95;;;5.57;;
26375;SDS011;30544;42.196;24.336;2022-07-22T14:26:22;14.30;;;5.28;;
26375;SDS011;30544;42.196;24.336;2022-07-22T14:28:48;18.45;;;5.40;;
26375;SDS011;30544;42.196;24.336;2022-07-22T14:31:15;14.32;;;4.10;;